Terminal Aerodrome Forecast
Issued by NWS

Home | Current Version | Previous Version | Text Only | Print | Product List | Glossary On
Versions: 1 2 3 4 5 6 7 8 9 10 11 12 13 14 15 16 17 18 19 20 21 22 23
000
FTUS42 KFFC 221500 AAC
TAFRYY
TAF AMD
KRYY 221544Z 2216/2312 31006KT P6SM FEW030
     FM221700 31007KT P6SM VCSH SCT040
     FM230100 28004KT P6SM FEW070 SCT250=

USA.gov is the U.S. government's official web portal to all federal, state and local government web resources and services.